Time;durP1;ratioP1;P1;durP2;ratioP2;P2;SDS_P1;SDS_P2;PMS_P1;PMS_P2;Temp;Humidity;BMP_temperature;BMP_pressure;BME280_temperature;BME280_humidity;BME280_pressure;Samples;Min_cycle;Max_cycle;Signal;HPM_P1;HPM_P2
2021/12/30 00:00:02;;;;;;;31.23;9.03;;;;;11.90;100419.00;;;;5003267;28;20226;-69
2021/12/30 00:02:48;;;;;;;38.63;10.13;;;;;11.70;100412.00;;;;4999997;28;20225;-69
2021/12/30 00:05:36;;;;;;;31.37;9.60;;;;;11.70;100409.00;;;;4999364;28;20239;-70
2021/12/30 00:08:23;;;;;;;29.17;9.73;;;;;11.80;100430.00;;;;4994570;28;20249;-70
2021/12/30 00:11:10;;;;;;;37.13;10.30;;;;;11.80;100416.00;;;;4998786;28;20238;-69
2021/12/30 00:13:57;;;;;;;39.23;9.30;;;;;11.70;100403.00;;;;4980657;28;20231;-68
2021/12/30 00:16:43;;;;;;;32.50;9.17;;;;;11.70;100413.00;;;;4988719;28;20789;-70
2021/12/30 00:19:29;;;;;;;31.40;9.30;;;;;11.80;100405.00;;;;4984178;28;20286;-69
2021/12/30 00:22:16;;;;;;;38.60;10.30;;;;;11.60;100420.00;;;;4992301;28;20626;-68
2021/12/30 00:25:03;;;;;;;27.97;9.57;;;;;11.60;100433.00;;;;4983746;28;20231;-70
2021/12/30 00:27:50;;;;;;;26.47;8.37;;;;;11.40;100440.00;;;;4985472;28;20605;-70
2021/12/30 00:30:36;;;;;;;33.63;10.23;;;;;11.20;100429.00;;;;4980058;28;20387;-69
2021/12/30 00:33:24;;;;;;;33.00;9.77;;;;;11.40;100425.00;;;;4997932;28;20242;-70
2021/12/30 00:36:11;;;;;;;23.97;8.37;;;;;11.30;100430.00;;;;5014469;28;20760;-68
2021/12/30 00:38:58;;;;;;;34.53;9.67;;;;;11.40;100446.00;;;;5001126;28;20233;-69
2021/12/30 00:41:44;;;;;;;41.00;10.73;;;;;11.40;100458.00;;;;4987578;28;20382;-71
2021/12/30 00:44:32;;;;;;;29.43;10.30;;;;;11.40;100445.00;;;;4995568;28;21005;-71
2021/12/30 00:47:18;;;;;;;32.67;10.13;;;;;11.40;100438.00;;;;4994934;28;20320;-69
2021/12/30 00:50:05;;;;;;;41.57;11.10;;;;;11.50;100451.00;;;;4992019;28;20887;-70
2021/12/30 00:52:51;;;;;;;34.67;9.63;;;;;11.40;100443.00;;;;4986988;28;20721;-70
2021/12/30 00:55:39;;;;;;;35.03;9.77;;;;;11.30;100440.00;;;;4992382;28;20287;-70
2021/12/30 00:58:26;;;;;;;36.43;10.30;;;;;11.20;100452.00;;;;4990603;28;20500;-70
2021/12/30 01:01:13;;;;;;;26.67;9.13;;;;;11.30;100476.00;;;;4986985;28;20230;-68
2021/12/30 01:04:00;;;;;;;26.23;9.83;;;;;11.20;100475.00;;;;5002887;28;20248;-70
2021/12/30 01:06:46;;;;;;;32.97;10.07;;;;;11.30;100473.00;;;;4987568;28;20240;-70
2021/12/30 01:09:32;;;;;;;32.23;10.23;;;;;11.20;100476.00;;;;5012415;28;20229;-70
2021/12/30 01:12:19;;;;;;;34.33;11.30;;;;;11.30;100471.00;;;;5010006;28;20727;-69
2021/12/30 01:15:10;;;;;;;43.03;13.27;;;;;11.50;100488.00;;;;4997667;28;20239;-67
2021/12/30 01:18:20;;;;;;;44.50;14.17;;;;;11.30;100483.00;;;;4985762;28;20229;-69
2021/12/30 01:21:08;;;;;;;43.87;13.80;;;;;11.40;100486.00;;;;4990087;28;20675;-71
2021/12/30 01:23:56;;;;;;;38.80;14.33;;;;;11.30;100498.00;;;;4988022;28;20737;-69
2021/12/30 01:26:43;;;;;;;52.77;13.97;;;;;11.40;100502.00;;;;5014944;28;20244;-68
2021/12/30 01:29:30;;;;;;;36.83;13.93;;;;;11.30;100516.00;;;;4986262;28;20226;-70
2021/12/30 01:32:17;;;;;;;47.37;14.07;;;;;11.30;100510.00;;;;4998961;28;20277;-71
2021/12/30 01:35:08;;;;;;;43.10;13.97;;;;;11.40;100517.00;;;;5000516;28;20329;-70
2021/12/30 01:37:56;;;;;;;42.67;13.43;;;;;11.50;100514.00;;;;4977194;28;20286;-70
2021/12/30 01:40:44;;;;;;;40.40;14.77;;;;;11.60;100530.00;;;;4986021;28;20627;-70
2021/12/30 01:43:30;;;;;;;43.60;14.37;;;;;11.70;100536.00;;;;5008271;28;20253;-69
2021/12/30 01:46:17;;;;;;;50.73;13.37;;;;;11.60;100530.00;;;;5010487;28;20237;-69
2021/12/30 01:49:03;;;;;;;51.17;13.57;;;;;11.60;100539.00;;;;5011152;28;20287;-70
2021/12/30 01:51:52;;;;;;;39.53;12.27;;;;;11.60;100548.00;;;;5005742;28;20237;-69
2021/12/30 01:54:38;;;;;;;39.63;12.17;;;;;11.60;100540.00;;;;5005774;28;20343;-69
2021/12/30 01:57:24;;;;;;;42.93;11.40;;;;;11.70;100532.00;;;;5008247;28;20721;-70
2021/12/30 02:00:13;;;;;;;38.93;11.03;;;;;11.70;100538.00;;;;4986390;28;20362;-69
2021/12/30 02:03:00;;;;;;;38.07;10.87;;;;;11.80;100532.00;;;;4996146;28;20759;-67
2021/12/30 02:05:48;;;;;;;32.43;10.63;;;;;11.60;100529.00;;;;4984594;28;20817;-70
2021/12/30 02:08:36;;;;;;;30.37;9.40;;;;;11.60;100532.00;;;;5015168;28;20362;-69
2021/12/30 02:11:23;;;;;;;32.60;10.07;;;;;11.70;100537.00;;;;5010946;28;20233;-69
2021/12/30 02:14:09;;;;;;;39.83;9.93;;;;;11.70;100538.00;;;;4985742;28;20239;-68
2021/12/30 02:16:55;;;;;;;31.37;10.30;;;;;11.80;100543.00;;;;5003648;28;20241;-68
2021/12/30 02:19:42;;;;;;;30.57;9.13;;;;;11.80;100540.00;;;;5010540;28;20233;-70
2021/12/30 02:22:29;;;;;;;25.80;9.20;;;;;11.80;100539.00;;;;5010228;28;20232;-70
2021/12/30 02:25:15;;;;;;;35.20;9.20;;;;;11.70;100560.00;;;;5010142;28;20239;-69
2021/12/30 02:28:06;;;;;;;30.10;9.33;;;;;11.70;100555.00;;;;5012296;28;20233;-70
2021/12/30 02:30:56;;;;;;;37.80;8.67;;;;;11.60;100552.00;;;;4999535;28;20323;-70
2021/12/30 02:33:44;;;;;;;28.00;8.57;;;;;11.80;100557.00;;;;4987227;28;20239;-68
2021/12/30 02:36:33;;;;;;;35.53;9.10;;;;;11.80;100552.00;;;;4986899;28;20278;-70
2021/12/30 02:39:23;;;;;;;30.73;8.17;;;;;11.80;100549.00;;;;4993459;28;20230;-69
2021/12/30 02:42:10;;;;;;;39.80;9.33;;;;;11.70;100543.00;;;;4986734;28;20238;-70
2021/12/30 02:44:57;;;;;;;31.60;9.13;;;;;11.80;100535.00;;;;4997686;28;20228;-70
2021/12/30 02:47:43;;;;;;;24.57;8.90;;;;;11.80;100558.00;;;;4979132;28;20234;-70
2021/12/30 02:50:30;;;;;;;33.27;9.13;;;;;11.80;100553.00;;;;5007156;28;20329;-69
2021/12/30 02:53:17;;;;;;;38.87;9.17;;;;;11.90;100550.00;;;;5010668;28;20452;-69
2021/12/30 02:56:06;;;;;;;36.10;8.90;;;;;11.80;100536.00;;;;4982501;28;20238;-69
2021/12/30 02:58:53;;;;;;;33.20;9.40;;;;;11.80;100546.00;;;;5001001;28;20800;-71
2021/12/30 03:01:40;;;;;;;31.27;8.63;;;;;11.90;100564.00;;;;4990842;28;20230;-66
2021/12/30 03:04:29;;;;;;;36.33;9.10;;;;;11.90;100561.00;;;;4986400;28;20239;-69
2021/12/30 03:07:18;;;;;;;30.50;9.00;;;;;11.90;100552.00;;;;5011764;28;20364;-70
2021/12/30 03:10:05;;;;;;;29.17;9.23;;;;;11.80;100544.00;;;;5006945;28;20882;-69
2021/12/30 03:12:56;;;;;;;32.17;9.20;;;;;11.80;100559.00;;;;5006587;28;20233;-70
2021/12/30 03:15:45;;;;;;;33.87;8.93;;;;;11.70;100566.00;;;;5020206;28;20230;-69
2021/12/30 03:18:33;;;;;;;29.50;9.23;;;;;11.80;100580.00;;;;5007787;28;20237;-66
2021/12/30 03:21:22;;;;;;;27.67;8.03;;;;;11.80;100576.00;;;;5014803;28;20744;-70
2021/12/30 03:24:10;;;;;;;31.57;8.67;;;;;11.80;100569.00;;;;5017364;28;20289;-69
2021/12/30 03:26:56;;;;;;;33.30;8.57;;;;;11.80;100574.00;;;;5018965;28;20234;-69
2021/12/30 03:29:44;;;;;;;28.27;8.07;;;;;11.70;100571.00;;;;5017308;28;20817;-70
2021/12/30 03:32:30;;;;;;;27.53;7.93;;;;;11.70;100568.00;;;;5016287;28;20269;-69
2021/12/30 03:35:16;;;;;;;21.43;6.63;;;;;11.70;100573.00;;;;5017638;28;20295;-69
2021/12/30 03:38:04;;;;;;;25.23;7.43;;;;;11.80;100573.00;;;;5022715;28;20236;-69
2021/12/30 03:40:53;;;;;;;31.00;7.97;;;;;11.70;100577.00;;;;5006727;28;20250;-69
2021/12/30 03:43:40;;;;;;;21.97;7.23;;;;;11.70;100577.00;;;;5012065;28;20261;-71
2021/12/30 03:46:28;;;;;;;25.97;7.43;;;;;11.70;100582.00;;;;5012481;28;20238;-67
2021/12/30 03:49:15;;;;;;;22.33;7.47;;;;;11.70;100587.00;;;;5011778;28;20281;-70
2021/12/30 03:52:01;;;;;;;26.30;6.67;;;;;11.70;100579.00;;;;5001248;28;20232;-69
2021/12/30 03:54:48;;;;;;;23.70;7.23;;;;;11.70;100576.00;;;;5000835;28;20373;-69
2021/12/30 03:57:34;;;;;;;26.40;7.27;;;;;11.70;100576.00;;;;5005131;28;20230;-68
2021/12/30 04:00:21;;;;;;;20.57;6.60;;;;;11.80;100570.00;;;;4999415;28;20242;-66
2021/12/30 04:03:09;;;;;;;30.27;6.40;;;;;11.80;100563.00;;;;5004721;28;20226;-69
2021/12/30 04:05:55;;;;;;;22.10;6.57;;;;;11.80;100566.00;;;;5002401;28;20609;-68
2021/12/30 04:08:42;;;;;;;31.70;7.53;;;;;11.90;100574.00;;;;4989295;28;20234;-69
2021/12/30 04:11:33;;;;;;;24.03;6.27;;;;;11.80;100583.00;;;;5009345;28;20886;-68
2021/12/30 04:14:19;;;;;;;30.10;6.73;;;;;11.70;100594.00;;;;5010198;28;20704;-68
2021/12/30 04:17:06;;;;;;;25.87;6.83;;;;;11.80;100582.00;;;;5016156;28;20744;-69
2021/12/30 04:19:53;;;;;;;33.43;6.83;;;;;11.80;100576.00;;;;5012231;28;20224;-69
2021/12/30 04:22:41;;;;;;;25.67;6.60;;;;;11.80;100577.00;;;;5014304;28;20243;-69
2021/12/30 04:25:27;;;;;;;25.23;6.73;;;;;11.90;100578.00;;;;5024541;28;20337;-68
2021/12/30 04:28:16;;;;;;;21.20;6.50;;;;;11.90;100589.00;;;;5001423;28;20251;-69
2021/12/30 04:31:02;;;;;;;27.50;7.30;;;;;11.90;100582.00;;;;5012570;28;20229;-68
2021/12/30 04:33:48;;;;;;;28.67;7.13;;;;;12.00;100582.00;;;;5001164;28;20374;-70
2021/12/30 04:36:36;;;;;;;20.27;7.50;;;;;11.90;100587.00;;;;5010126;28;20254;-67
2021/12/30 04:39:22;;;;;;;35.83;7.20;;;;;11.90;100587.00;;;;5012059;28;20237;-70
2021/12/30 04:42:09;;;;;;;29.13;7.07;;;;;12.00;100586.00;;;;4988747;28;22950;-69
2021/12/30 04:44:55;;;;;;;30.03;7.50;;;;;12.00;100591.00;;;;4986392;28;20767;-69
2021/12/30 04:47:42;;;;;;;25.77;7.47;;;;;12.00;100593.00;;;;5003608;28;20611;-69
2021/12/30 04:50:28;;;;;;;28.13;7.73;;;;;11.90;100595.00;;;;5007899;28;20301;-69
2021/12/30 04:53:18;;;;;;;28.33;6.87;;;;;12.10;100590.00;;;;5015027;28;20365;-69
2021/12/30 04:56:06;;;;;;;18.27;6.67;;;;;12.10;100594.00;;;;5009942;28;20283;-69
2021/12/30 04:58:52;;;;;;;21.77;7.50;;;;;12.10;100593.00;;;;5000895;28;20234;-68
2021/12/30 05:01:39;;;;;;;23.03;7.30;;;;;12.10;100596.00;;;;4989037;28;20745;-69
2021/12/30 05:04:25;;;;;;;29.37;8.67;;;;;12.20;100598.00;;;;5008514;28;20246;-69
2021/12/30 05:07:11;;;;;;;26.83;7.43;;;;;12.20;100598.00;;;;4988468;28;21032;-69
2021/12/30 05:09:59;;;;;;;27.07;7.67;;;;;12.20;100601.00;;;;5002398;28;20272;-69
2021/12/30 05:12:46;;;;;;;25.90;7.27;;;;;12.20;100596.00;;;;5009954;28;20284;-65
2021/12/30 05:15:32;;;;;;;26.33;7.60;;;;;12.30;100606.00;;;;5011461;28;20605;-69
2021/12/30 05:18:20;;;;;;;23.00;6.77;;;;;12.20;100606.00;;;;5009132;28;20313;-69
2021/12/30 05:21:07;;;;;;;28.03;7.30;;;;;12.30;100601.00;;;;5014023;28;20251;-71
2021/12/30 05:23:54;;;;;;;18.77;6.93;;;;;12.40;100595.00;;;;4991659;28;20230;-69
2021/12/30 05:26:42;;;;;;;19.90;6.43;;;;;12.40;100607.00;;;;4987975;28;20238;-70
2021/12/30 05:29:28;;;;;;;24.87;7.13;;;;;12.40;100614.00;;;;4989957;28;20230;-69
2021/12/30 05:32:14;;;;;;;15.80;5.47;;;;;12.40;100607.00;;;;5011575;28;20365;-69
2021/12/30 05:35:00;;;;;;;15.97;6.17;;;;;12.40;100599.00;;;;4983853;28;20234;-68
2021/12/30 05:37:47;;;;;;;21.17;6.83;;;;;12.40;100600.00;;;;5004439;28;21048;-70
2021/12/30 05:40:34;;;;;;;15.73;5.47;;;;;12.40;100588.00;;;;4993288;28;20238;-69
2021/12/30 05:43:22;;;;;;;17.47;5.40;;;;;12.50;100588.00;;;;5003324;28;20229;-69
2021/12/30 05:46:08;;;;;;;11.63;5.40;;;;;12.60;100593.00;;;;5007372;28;20237;-69
2021/12/30 05:48:54;;;;;;;16.40;5.57;;;;;12.50;100594.00;;;;5001164;28;20290;-70
2021/12/30 05:51:41;;;;;;;32.77;15.77;;;;;12.50;100579.00;;;;5019602;28;20225;-69
2021/12/30 05:54:28;;;;;;;19.23;8.90;;;;;12.60;100577.00;;;;5010187;28;20336;-70
2021/12/30 05:57:14;;;;;;;12.53;5.33;;;;;12.70;100580.00;;;;4999408;28;20249;-67
2021/12/30 06:00:02;;;;;;;14.93;4.90;;;;;12.60;100591.00;;;;5001788;28;20319;-69
2021/12/30 06:02:49;;;;;;;11.20;4.27;;;;;12.70;100586.00;;;;5009626;28;20270;-67
2021/12/30 06:05:36;;;;;;;10.47;4.37;;;;;12.70;100582.00;;;;5013105;28;20296;-71
2021/12/30 06:08:22;;;;;;;9.07;3.73;;;;;12.70;100591.00;;;;5022241;28;20240;-71
2021/12/30 06:11:08;;;;;;;6.27;3.67;;;;;12.70;100605.00;;;;5010392;28;20257;-70
2021/12/30 06:13:55;;;;;;;6.57;3.33;;;;;12.70;100600.00;;;;4994829;28;20236;-70
2021/12/30 06:16:43;;;;;;;6.13;3.47;;;;;12.70;100600.00;;;;5014035;28;20255;-69
2021/12/30 06:19:29;;;;;;;6.40;4.00;;;;;12.80;100598.00;;;;4996608;28;20721;-71
2021/12/30 06:22:16;;;;;;;9.23;3.70;;;;;12.80;100611.00;;;;4998412;28;20306;-71
2021/12/30 06:25:02;;;;;;;7.77;4.23;;;;;12.80;100603.00;;;;4999660;28;20255;-70
2021/12/30 06:27:49;;;;;;;11.30;5.20;;;;;12.80;100613.00;;;;4990759;28;20726;-71
2021/12/30 06:30:35;;;;;;;9.33;5.60;;;;;12.80;100619.00;;;;4986503;28;20978;-70
2021/12/30 06:33:22;;;;;;;11.17;6.20;;;;;12.90;100610.00;;;;5010122;28;20229;-70
2021/12/30 06:36:10;;;;;;;12.00;6.87;;;;;12.90;100614.00;;;;4986699;28;20898;-69
2021/12/30 06:38:57;;;;;;;43.13;20.53;;;;;13.10;100609.00;;;;5010082;28;20230;-70
2021/12/30 06:41:43;;;;;;;15.43;7.83;;;;;13.00;100601.00;;;;4982714;28;20238;-70
2021/12/30 06:44:29;;;;;;;15.40;8.00;;;;;13.00;100608.00;;;;5020195;28;20276;-71
2021/12/30 06:47:15;;;;;;;18.37;8.97;;;;;12.90;100617.00;;;;5008393;28;20227;-70
2021/12/30 06:50:04;;;;;;;22.20;9.20;;;;;13.10;100610.00;;;;5007287;28;20253;-70
2021/12/30 06:52:50;;;;;;;18.23;8.73;;;;;13.00;100608.00;;;;5013904;28;20813;-71
2021/12/30 06:55:36;;;;;;;20.83;10.13;;;;;13.10;100605.00;;;;4987467;28;20238;-71
2021/12/30 06:58:23;;;;;;;19.50;9.40;;;;;13.10;100604.00;;;;5018606;28;20909;-71
2021/12/30 07:01:09;;;;;;;36.60;19.17;;;;;13.00;100604.00;;;;4990554;28;20277;-69
2021/12/30 07:03:56;;;;;;;19.47;10.10;;;;;13.00;100614.00;;;;5000121;28;20354;-71
2021/12/30 07:06:44;;;;;;;13.60;8.60;;;;;13.00;100609.00;;;;4979012;28;20227;-72
2021/12/30 07:09:31;;;;;;;17.50;8.63;;;;;13.00;100607.00;;;;5008017;28;20713;-70
2021/12/30 07:12:17;;;;;;;15.13;7.70;;;;;13.00;100617.00;;;;5015769;28;20575;-70
2021/12/30 07:15:04;;;;;;;11.50;7.33;;;;;12.90;100626.00;;;;5011753;28;20250;-71
2021/12/30 07:17:50;;;;;;;12.30;7.10;;;;;12.90;100622.00;;;;5005929;28;20233;-70
2021/12/30 07:20:37;;;;;;;14.60;7.60;;;;;13.00;100626.00;;;;5020796;28;20400;-68
2021/12/30 07:23:25;;;;;;;15.37;7.50;;;;;13.10;100642.00;;;;5011979;28;20329;-70
2021/12/30 07:26:11;;;;;;;14.57;7.33;;;;;13.10;100638.00;;;;5026098;28;20739;-71
2021/12/30 07:28:57;;;;;;;14.10;7.30;;;;;13.10;100638.00;;;;4997347;28;20253;-71
2021/12/30 07:31:43;;;;;;;16.07;7.23;;;;;13.10;100651.00;;;;4985733;28;20610;-71
2021/12/30 07:34:29;;;;;;;13.90;7.00;;;;;13.10;100648.00;;;;5019551;28;20256;-68
2021/12/30 07:37:16;;;;;;;13.67;7.27;;;;;13.10;100659.00;;;;5000783;28;20223;-72
2021/12/30 07:40:05;;;;;;;16.87;7.40;;;;;13.20;100660.00;;;;4993964;28;20235;-71
2021/12/30 07:42:51;;;;;;;13.97;6.77;;;;;13.20;100661.00;;;;4992537;28;20233;-71
2021/12/30 07:45:37;;;;;;;14.23;7.53;;;;;13.30;100660.00;;;;5001371;28;20242;-70
2021/12/30 07:48:24;;;;;;;19.10;8.43;;;;;13.40;100669.00;;;;5003365;28;20237;-67
2021/12/30 07:51:10;;;;;;;19.90;8.50;;;;;13.40;100667.00;;;;5009110;28;20237;-73
2021/12/30 07:53:56;;;;;;;16.40;8.10;;;;;13.50;100671.00;;;;4993601;28;20230;-71
2021/12/30 07:56:44;;;;;;;17.23;8.10;;;;;13.50;100679.00;;;;5001401;28;20230;-70
2021/12/30 07:59:31;;;;;;;49.53;27.37;;;;;13.50;100681.00;;;;5008621;28;20386;-72
2021/12/30 08:02:17;;;;;;;22.50;11.00;;;;;13.50;100688.00;;;;4980860;28;20367;-73
2021/12/30 08:05:05;;;;;;;19.17;8.80;;;;;13.50;100689.00;;;;4979928;28;20242;-71
2021/12/30 08:07:52;;;;;;;22.13;8.97;;;;;13.50;100680.00;;;;5012207;28;20237;-72
2021/12/30 08:10:39;;;;;;;16.57;7.70;;;;;13.50;100692.00;;;;5009094;28;20306;-71
2021/12/30 08:13:27;;;;;;;18.03;7.67;;;;;13.50;100694.00;;;;5004457;28;20806;-74
2021/12/30 08:16:14;;;;;;;18.47;7.20;;;;;13.50;100699.00;;;;5000488;28;20336;-69
2021/12/30 08:19:00;;;;;;;16.00;7.87;;;;;13.60;100690.00;;;;4982817;28;20230;-71
2021/12/30 08:21:47;;;;;;;15.70;7.40;;;;;13.60;100695.00;;;;5004016;28;20233;-72
2021/12/30 08:24:33;;;;;;;13.30;7.13;;;;;13.50;100679.00;;;;5013739;28;20245;-71
2021/12/30 08:27:30;;;;;;;14.53;7.03;;;;;13.60;100692.00;;;;5013381;28;20305;-70
2021/12/30 08:30:20;;;;;;;10.70;6.03;;;;;13.50;100693.00;;;;4995045;28;20246;-72
2021/12/30 08:33:06;;;;;;;11.50;6.37;;;;;13.50;100700.00;;;;4999380;28;20237;-73
2021/12/30 08:35:52;;;;;;;15.27;7.40;;;;;13.70;100697.00;;;;5000694;28;20281;-70
2021/12/30 08:38:38;;;;;;;14.23;6.40;;;;;13.70;100700.00;;;;4974167;28;20247;-71
2021/12/30 08:41:25;;;;;;;12.93;6.20;;;;;13.60;100679.00;;;;5003800;28;20374;-71
2021/12/30 08:44:11;;;;;;;13.30;6.10;;;;;13.70;100709.00;;;;5012093;28;20238;-72
2021/12/30 08:46:59;;;;;;;13.83;6.00;;;;;13.70;100719.00;;;;5002245;28;20228;-68
2021/12/30 08:49:46;;;;;;;11.93;6.37;;;;;13.60;100719.00;;;;4999570;28;20521;-72
2021/12/30 08:52:33;;;;;;;10.77;5.77;;;;;13.50;100735.00;;;;5014037;28;20234;-72
2021/12/30 08:55:19;;;;;;;12.03;6.20;;;;;13.60;100719.00;;;;5018279;28;20245;-72
2021/12/30 08:58:05;;;;;;;11.40;5.17;;;;;13.60;100709.00;;;;5015377;28;20234;-72
2021/12/30 09:00:52;;;;;;;9.87;5.00;;;;;13.70;100735.00;;;;5007460;28;20234;-71
2021/12/30 09:03:40;;;;;;;10.43;5.30;;;;;13.60;100730.00;;;;5017495;28;20235;-73
2021/12/30 09:06:26;;;;;;;11.03;5.00;;;;;13.70;100744.00;;;;5013994;28;20233;-72
2021/12/30 09:09:12;;;;;;;11.47;5.80;;;;;13.70;100734.00;;;;5018025;28;20837;-73
2021/12/30 09:11:58;;;;;;;10.27;5.33;;;;;13.70;100756.00;;;;5008033;28;20403;-72
2021/12/30 09:14:45;;;;;;;9.17;4.73;;;;;13.70;100769.00;;;;5011337;28;20258;-72
2021/12/30 09:17:33;;;;;;;8.70;5.03;;;;;13.70;100759.00;;;;5014333;28;20364;-72
2021/12/30 09:20:22;;;;;;;9.83;5.50;;;;;13.70;100760.00;;;;5008226;28;20241;-70
2021/12/30 09:23:11;;;;;;;62.07;30.83;;;;;13.70;100749.00;;;;5011037;28;20260;-72
2021/12/30 09:25:58;;;;;;;14.67;6.43;;;;;13.60;100750.00;;;;4999159;28;20233;-71
2021/12/30 09:28:46;;;;;;;7.93;4.43;;;;;13.70;100760.00;;;;5004350;28;20238;-73
2021/12/30 09:31:32;;;;;;;7.07;4.03;;;;;13.80;100746.00;;;;5023165;28;20232;-72
2021/12/30 09:34:20;;;;;;;8.23;4.57;;;;;13.80;100751.00;;;;5011517;28;20242;-74
2021/12/30 09:37:10;;;;;;;7.20;4.27;;;;;13.90;100752.00;;;;5017770;28;20256;-71
2021/12/30 09:39:58;;;;;;;7.67;4.30;;;;;13.80;100754.00;;;;5005978;28;20719;-73
2021/12/30 09:42:50;;;;;;;10.43;4.40;;;;;13.90;100770.00;;;;5008841;28;20736;-72
2021/12/30 09:45:40;;;;;;;8.97;4.40;;;;;13.90;100765.00;;;;5014229;28;20242;-68
2021/12/30 09:48:26;;;;;;;10.67;4.47;;;;;13.90;100761.00;;;;5020815;28;20235;-73
2021/12/30 09:51:13;;;;;;;8.23;4.77;;;;;14.00;100754.00;;;;4992725;28;20312;-71
2021/12/30 09:54:01;;;;;;;6.53;4.13;;;;;13.90;100757.00;;;;4997027;28;20233;-71
2021/12/30 09:56:47;;;;;;;66.57;30.67;;;;;14.10;100749.00;;;;4992524;28;20315;-68
2021/12/30 09:59:34;;;;;;;14.50;6.60;;;;;14.00;100759.00;;;;4995505;28;20629;-73
2021/12/30 10:02:20;;;;;;;7.70;4.20;;;;;14.20;100763.00;;;;5003767;28;20284;-72
2021/12/30 10:05:10;;;;;;;10.17;4.00;;;;;14.10;100760.00;;;;4994704;28;20730;-72
2021/12/30 10:08:15;;;;;;;5.57;4.03;;;;;14.00;100784.00;;;;4998162;28;20312;-71
2021/12/30 10:11:05;;;;;;;7.60;4.53;;;;;14.00;100787.00;;;;4997332;28;20238;-72
2021/12/30 10:13:53;;;;;;;6.83;4.17;;;;;14.00;100788.00;;;;5000751;28;20237;-73
2021/12/30 10:16:40;;;;;;;6.13;4.10;;;;;14.00;100790.00;;;;4992422;28;20250;-72
2021/12/30 10:19:27;;;;;;;7.37;3.90;;;;;14.00;100787.00;;;;4986892;28;20231;-72
2021/12/30 10:22:15;;;;;;;6.63;3.57;;;;;14.00;100796.00;;;;4987271;28;20906;-71
2021/12/30 10:25:03;;;;;;;4.53;3.40;;;;;14.00;100811.00;;;;5011303;28;20236;-71
2021/12/30 10:27:56;;;;;;;5.57;3.90;;;;;13.90;100790.00;;;;4999184;28;20748;-72
2021/12/30 10:30:46;;;;;;;5.83;3.97;;;;;14.00;100802.00;;;;4982907;28;20222;-71
2021/12/30 10:33:32;;;;;;;5.80;3.63;;;;;14.00;100813.00;;;;5015955;28;20591;-68
2021/12/30 10:36:20;;;;;;;5.07;3.80;;;;;14.20;100793.00;;;;5006861;28;20238;-72
2021/12/30 10:39:19;;;;;;;7.10;4.23;;;;;14.20;100799.00;;;;5013612;28;20276;-71
2021/12/30 10:42:21;;;;;;;5.67;3.20;;;;;14.30;100794.00;;;;4998632;28;20228;-69
2021/12/30 10:45:09;;;;;;;7.47;3.80;;;;;14.20;100787.00;;;;5003054;28;20728;-72
2021/12/30 10:47:56;;;;;;;5.37;3.70;;;;;14.30;100787.00;;;;5012912;28;20241;-71
2021/12/30 10:50:42;;;;;;;4.03;2.93;;;;;14.40;100792.00;;;;5013508;28;20352;-71
2021/12/30 10:53:30;;;;;;;4.03;2.70;;;;;14.30;100795.00;;;;5015847;28;20228;-72
2021/12/30 10:56:24;;;;;;;4.03;2.93;;;;;14.40;100793.00;;;;5020252;28;20238;-71
2021/12/30 10:59:22;;;;;;;5.53;2.80;;;;;14.30;100789.00;;;;5005788;28;20360;-68
2021/12/30 11:02:15;;;;;;;4.93;3.00;;;;;14.30;100798.00;;;;5009498;28;20229;-72
2021/12/30 11:05:08;;;;;;;5.23;3.30;;;;;14.50;100796.00;;;;5012055;28;20736;-72
2021/12/30 11:07:55;;;;;;;4.87;2.80;;;;;14.50;100790.00;;;;5010671;28;20296;-72
2021/12/30 11:10:41;;;;;;;7.17;3.13;;;;;14.40;100797.00;;;;5014250;28;20258;-72
2021/12/30 11:13:27;;;;;;;5.23;3.17;;;;;14.50;100797.00;;;;5020460;28;20268;-72
2021/12/30 11:16:13;;;;;;;3.50;2.90;;;;;14.50;100801.00;;;;5017315;28;20238;-69
2021/12/30 11:19:09;;;;;;;6.10;3.20;;;;;14.60;100808.00;;;;4991621;28;20337;-72
2021/12/30 11:21:57;;;;;;;4.30;3.20;;;;;14.70;100798.00;;;;4995288;28;20374;-71
2021/12/30 11:24:48;;;;;;;7.73;3.50;;;;;14.70;100807.00;;;;5006382;28;20300;-69
2021/12/30 11:27:34;;;;;;;5.37;3.20;;;;;14.80;100793.00;;;;4995956;28;20243;-70
2021/12/30 11:30:21;;;;;;;5.20;3.77;;;;;14.80;100798.00;;;;5002513;28;20258;-70
2021/12/30 11:33:07;;;;;;;91.47;42.17;;;;;14.80;100798.00;;;;5013774;28;20628;-73
2021/12/30 11:35:55;;;;;;;9.27;4.87;;;;;14.90;100812.00;;;;5009102;28;20613;-71
2021/12/30 11:38:41;;;;;;;8.17;3.67;;;;;14.90;100809.00;;;;5015320;28;20235;-73
2021/12/30 11:41:29;;;;;;;7.87;3.00;;;;;14.80;100790.00;;;;4993223;28;20232;-71
2021/12/30 11:44:40;;;;;;;7.63;3.00;;;;;14.80;100816.00;;;;4989832;28;20242;-72
2021/12/30 11:47:41;;;;;;;7.83;3.30;;;;;14.70;100804.00;;;;4987702;28;20236;-70
2021/12/30 11:50:33;;;;;;;7.17;2.87;;;;;14.70;100818.00;;;;4982842;28;20290;-71
2021/12/30 11:53:27;;;;;;;4.13;2.63;;;;;14.80;100821.00;;;;4984332;28;20368;-72
2021/12/30 11:56:18;;;;;;;6.13;2.80;;;;;14.70;100825.00;;;;4987086;28;20237;-71
2021/12/30 11:59:04;;;;;;;6.70;2.97;;;;;14.60;100814.00;;;;4992199;28;20370;-72
2021/12/30 12:01:51;;;;;;;6.60;2.90;;;;;14.60;100815.00;;;;5002251;28;20321;-73
2021/12/30 12:04:37;;;;;;;6.40;3.07;;;;;14.60;100800.00;;;;4997859;28;20316;-73
2021/12/30 12:07:23;;;;;;;35.20;19.10;;;;;14.60;100810.00;;;;4994817;28;20280;-70
2021/12/30 12:10:18;;;;;;;6.17;3.77;;;;;14.70;100813.00;;;;4997853;28;20234;-74
2021/12/30 12:13:33;;;;;;;5.33;3.27;;;;;14.60;100821.00;;;;5002337;28;20340;-73
2021/12/30 12:16:44;;;;;;;10.43;3.53;;;;;14.60;100810.00;;;;4995539;28;20234;-70
2021/12/30 12:19:37;;;;;;;6.97;3.17;;;;;14.60;100809.00;;;;5005742;28;20241;-70
2021/12/30 12:22:29;;;;;;;8.17;3.10;;;;;14.60;100779.00;;;;5005710;28;20247;-72
2021/12/30 12:25:20;;;;;;;8.50;3.40;;;;;14.60;100815.00;;;;5002197;28;20786;-72
2021/12/30 12:28:19;;;;;;;4.70;3.10;;;;;14.60;100820.00;;;;5004729;28;20234;-72
2021/12/30 12:31:07;;;;;;;6.50;3.43;;;;;14.60;100821.00;;;;4985563;28;20240;-72
2021/12/30 12:33:59;;;;;;;9.43;4.37;;;;;14.70;100812.00;;;;5000116;28;20271;-70
2021/12/30 12:36:45;;;;;;;7.80;3.70;;;;;14.80;100827.00;;;;4979570;28;20227;-73
2021/12/30 12:39:36;;;;;;;7.30;3.30;;;;;14.60;100830.00;;;;4988878;28;20234;-72
2021/12/30 12:42:58;;;;;;;7.43;3.57;;;;;14.50;100823.00;;;;5007166;28;20245;-74
2021/12/30 12:45:58;;;;;;;5.80;3.33;;;;;14.60;100835.00;;;;5003530;28;20723;-74
2021/12/30 12:48:54;;;;;;;6.97;3.60;;;;;14.60;100835.00;;;;5002895;28;20234;-73
2021/12/30 12:51:52;;;;;;;6.67;3.63;;;;;14.50;100851.00;;;;5014922;28;20740;-72
2021/12/30 12:54:41;;;;;;;7.73;3.83;;;;;14.50;100844.00;;;;4986540;28;20815;-72
2021/12/30 12:57:27;;;;;;;7.23;3.40;;;;;14.60;100825.00;;;;5008555;28;20290;-72
2021/12/30 13:00:15;;;;;;;6.90;3.50;;;;;14.60;100828.00;;;;4986580;28;20231;-72
2021/12/30 13:03:02;;;;;;;7.63;3.90;;;;;14.70;100821.00;;;;5007028;28;20282;-73
2021/12/30 13:05:56;;;;;;;6.00;3.50;;;;;14.70;100816.00;;;;4998847;28;20234;-72
2021/12/30 13:08:45;;;;;;;7.10;3.63;;;;;14.50;100823.00;;;;5014304;28;20230;-72
2021/12/30 13:11:33;;;;;;;8.53;3.93;;;;;14.70;100820.00;;;;5008736;28;20705;-71
2021/12/30 13:14:21;;;;;;;8.70;3.50;;;;;14.70;100823.00;;;;5011057;28;21134;-72
2021/12/30 13:17:11;;;;;;;6.87;3.40;;;;;14.70;100818.00;;;;5010282;28;20265;-73
2021/12/30 13:19:57;;;;;;;8.47;4.23;;;;;14.80;100823.00;;;;4993787;28;20898;-72
2021/12/30 13:22:44;;;;;;;5.87;3.50;;;;;14.90;100833.00;;;;4997154;28;20728;-73
2021/12/30 13:25:30;;;;;;;7.37;3.53;;;;;14.80;100843.00;;;;5021352;28;20254;-72
2021/12/30 13:28:16;;;;;;;7.07;3.50;;;;;14.80;100843.00;;;;5013065;28;20544;-73
2021/12/30 13:31:08;;;;;;;8.13;3.40;;;;;14.80;100850.00;;;;5013071;28;20229;-74
2021/12/30 13:33:58;;;;;;;7.40;3.43;;;;;14.80;100847.00;;;;4998540;28;20781;-73
2021/12/30 13:37:12;;;;;;;13.57;6.83;;;;;14.90;100850.00;;;;4981971;28;20234;-70
2021/12/30 13:39:58;;;;;;;10.33;5.57;;;;;14.80;100856.00;;;;5000360;28;20241;-71
2021/12/30 13:42:50;;;;;;;10.63;4.10;;;;;14.70;100853.00;;;;5006875;28;20230;-73